createdAt,value
2019-02-23T00:00:55.733Z,48.87
2019-02-23T00:01:59.969Z,48.90
2019-02-23T00:03:03.964Z,49.03
2019-02-23T00:04:07.806Z,49.02
2019-02-23T00:05:11.989Z,49.13
2019-02-23T00:06:16.084Z,49.10
2019-02-23T00:07:19.994Z,49.03
2019-02-23T00:08:24.084Z,48.97
2019-02-23T00:09:28.179Z,48.95
2019-02-23T00:10:32.125Z,48.75
2019-02-23T00:11:36.352Z,48.64
2019-02-23T00:12:40.956Z,48.64
2019-02-23T00:13:45.731Z,48.60
2019-02-23T00:14:49.985Z,48.59
2019-02-23T00:15:54.227Z,48.66
2019-02-23T00:16:58.398Z,48.70
2019-02-23T00:18:02.641Z,48.67
2019-02-23T00:19:06.626Z,48.58
2019-02-23T00:20:10.635Z,48.51
2019-02-23T00:21:14.805Z,48.50
2019-02-23T00:22:18.790Z,48.44
2019-02-23T00:23:22.628Z,48.23
2019-02-23T00:24:26.470Z,48.35
2019-02-23T00:25:30.401Z,48.46
2019-02-23T00:26:34.489Z,48.44
2019-02-23T00:27:38.333Z,48.37
2019-02-23T00:28:42.336Z,48.10
2019-02-23T00:29:46.680Z,47.86
2019-02-23T00:30:50.864Z,48.00
2019-02-23T00:31:55.341Z,48.08
2019-02-23T00:32:59.687Z,48.09
2019-02-23T00:34:04.093Z,48.18
2019-02-23T00:35:08.349Z,48.40
2019-02-23T00:36:12.510Z,48.66
2019-02-23T00:37:16.849Z,48.75
2019-02-23T00:38:20.765Z,48.70
2019-02-23T00:39:24.678Z,48.69
2019-02-23T00:40:28.608Z,48.71
2019-02-23T00:41:33.090Z,48.57
2019-02-23T00:42:37.005Z,48.70
2019-02-23T00:43:40.923Z,48.80
2019-02-23T00:44:45.085Z,48.77
2019-02-23T00:45:49.366Z,48.83
2019-02-23T00:46:53.489Z,48.84
2019-02-23T00:47:58.001Z,48.88
2019-02-23T00:49:02.518Z,48.92
2019-02-23T00:50:06.826Z,49.01
2019-02-23T00:51:11.359Z,49.12
2019-02-23T00:52:16.051Z,49.18
2019-02-23T00:53:20.155Z,49.27
2019-02-23T00:54:24.884Z,49.18
2019-02-23T00:55:29.054Z,49.33
2019-02-23T00:56:33.059Z,49.35
2019-02-23T00:57:37.228Z,49.46
2019-02-23T00:58:41.416Z,49.55
2019-02-23T00:59:45.505Z,49.65
2019-02-23T01:00:50.375Z,49.67
2019-02-23T01:01:54.288Z,49.70
2019-02-23T01:02:59.159Z,49.74
2019-02-23T01:04:03.462Z,49.71
2019-02-23T01:05:07.654Z,49.75
2019-02-23T01:06:12.000Z,49.80
2019-02-23T01:07:16.571Z,49.70
2019-02-23T01:08:21.379Z,49.72
2019-02-23T01:09:25.595Z,49.71
2019-02-23T01:10:29.841Z,49.78
2019-02-23T01:11:33.751Z,49.80
2019-02-23T01:12:37.663Z,49.81
2019-02-23T01:13:41.793Z,49.67
2019-02-23T01:14:45.633Z,49.54
2019-02-23T01:15:49.629Z,49.60
2019-02-23T01:16:53.609Z,49.78
2019-02-23T01:17:58.030Z,49.89
2019-02-23T01:19:02.274Z,50.03
2019-02-23T01:20:07.609Z,50.16
2019-02-23T01:21:11.621Z,50.21
2019-02-23T01:22:15.536Z,50.13
2019-02-23T01:23:20.271Z,50.14
2019-02-23T01:24:24.198Z,50.20
2019-02-23T01:25:28.527Z,50.23
2019-02-23T01:26:32.892Z,50.28
2019-02-23T01:27:36.885Z,50.31
2019-02-23T01:28:41.002Z,50.39
2019-02-23T01:29:44.841Z,50.43
2019-02-23T01:30:49.059Z,50.37
2019-02-23T01:31:53.228Z,50.41
2019-02-23T01:32:57.217Z,50.47
2019-02-23T01:34:02.022Z,50.55
2019-02-23T01:35:06.920Z,50.60
2019-02-23T01:36:11.412Z,50.75
2019-02-23T01:37:15.895Z,50.82
2019-02-23T01:38:20.128Z,50.81
2019-02-23T01:39:24.287Z,50.74
2019-02-23T01:40:28.274Z,50.73
2019-02-23T01:41:32.447Z,50.75
2019-02-23T01:42:36.352Z,50.72
2019-02-23T01:43:40.259Z,50.69
2019-02-23T01:44:44.351Z,50.66
2019-02-23T01:45:48.533Z,50.69
2019-02-23T01:46:52.373Z,50.71
2019-02-23T01:47:56.790Z,50.65
2019-02-23T01:49:01.123Z,50.70
2019-02-23T01:50:05.362Z,50.72
2019-02-23T01:51:09.797Z,50.76
2019-02-23T01:52:13.946Z,50.84
2019-02-23T01:53:18.184Z,50.88
2019-02-23T01:54:22.340Z,50.91
2019-02-23T01:55:26.254Z,51.00
2019-02-23T01:56:30.779Z,51.07
2019-02-23T01:57:34.660Z,51.14
2019-02-23T01:58:39.092Z,51.13
2019-02-23T01:59:43.256Z,51.04
2019-02-23T02:00:47.415Z,50.92
2019-02-23T02:01:51.657Z,50.84
2019-02-23T02:02:55.892Z,50.76
2019-02-23T02:03:59.732Z,50.75
2019-02-23T02:05:04.252Z,50.61
2019-02-23T02:06:08.176Z,50.56
2019-02-23T02:07:12.513Z,50.48
2019-02-23T02:08:16.499Z,50.29
2019-02-23T02:09:20.652Z,50.16
2019-02-23T02:10:24.810Z,50.06
2019-02-23T02:11:28.674Z,49.99
2019-02-23T02:12:32.812Z,49.98
2019-02-23T02:13:37.320Z,49.95
2019-02-23T02:14:41.231Z,49.96
2019-02-23T02:15:45.431Z,49.93
2019-02-23T02:16:50.053Z,49.91
2019-02-23T02:17:54.093Z,49.93
2019-02-23T02:18:58.389Z,49.90
2019-02-23T02:20:10.476Z,49.86
2019-02-23T02:21:08.938Z,49.83
2019-02-23T02:22:13.184Z,49.79
2019-02-23T02:23:17.330Z,49.49
2019-02-23T02:24:21.173Z,49.64
2019-02-23T02:25:25.024Z,49.71
2019-02-23T02:26:29.034Z,49.67
2019-02-23T02:27:32.974Z,49.64
2019-02-23T02:28:36.891Z,49.50
2019-02-23T02:29:41.180Z,49.34
2019-02-23T02:30:45.056Z,49.28
2019-02-23T02:31:49.312Z,49.25
2019-02-23T02:32:53.432Z,49.16
2019-02-23T02:34:08.415Z,49.04
2019-02-23T02:35:12.705Z,49.07
2019-02-23T02:36:17.153Z,49.08
2019-02-23T02:37:21.629Z,49.02
2019-02-23T02:38:26.243Z,48.89
2019-02-23T02:39:30.583Z,48.82
2019-02-23T02:40:34.988Z,48.89
2019-02-23T02:41:38.986Z,48.94
2019-02-23T02:42:43.245Z,48.96
2019-02-23T02:43:47.176Z,48.96
2019-02-23T02:44:52.098Z,48.97
2019-02-23T02:45:56.305Z,48.99
2019-02-23T02:47:00.150Z,48.86
2019-02-23T02:48:04.155Z,48.77
2019-02-23T02:49:08.435Z,48.73
2019-02-23T02:50:23.672Z,48.73
2019-02-23T02:51:18.743Z,48.68
2019-02-23T02:52:23.097Z,48.68
2019-02-23T02:53:27.296Z,48.70
2019-02-23T02:54:31.495Z,48.60
2019-02-23T02:55:35.712Z,48.53
2019-02-23T02:56:39.693Z,48.52
2019-02-23T02:57:43.897Z,48.42
2019-02-23T02:58:48.303Z,48.36
2019-02-23T02:59:52.285Z,48.35
2019-02-23T03:00:56.830Z,48.28
2019-02-23T03:02:01.140Z,48.24
2019-02-23T03:03:04.983Z,48.18
2019-02-23T03:04:09.337Z,48.25
2019-02-23T03:05:14.137Z,48.33
2019-02-23T03:06:18.057Z,48.37
2019-02-23T03:07:22.768Z,48.44
2019-02-23T03:08:27.005Z,48.37
2019-02-23T03:09:31.494Z,48.41
2019-02-23T03:10:35.700Z,48.36
2019-02-23T03:11:39.737Z,48.24
2019-02-23T03:12:43.600Z,48.24
2019-02-23T03:13:47.869Z,48.14
2019-02-23T03:14:52.323Z,48.19
2019-02-23T03:15:56.828Z,48.25
2019-02-23T03:17:01.069Z,48.27
2019-02-23T03:18:05.217Z,48.35
2019-02-23T03:19:09.773Z,48.49
2019-02-23T03:20:14.162Z,48.60
2019-02-23T03:21:17.997Z,48.56
2019-02-23T03:22:22.083Z,48.63
2019-02-23T03:23:25.994Z,48.62
2019-02-23T03:24:30.173Z,48.65
2019-02-23T03:25:34.319Z,48.66
2019-02-23T03:26:38.555Z,48.67
2019-02-23T03:27:42.976Z,48.68
2019-02-23T03:28:46.895Z,48.73
2019-02-23T03:29:50.745Z,48.75
2019-02-23T03:30:54.723Z,48.85
2019-02-23T03:31:58.561Z,48.89
2019-02-23T03:33:02.513Z,48.97
2019-02-23T03:34:06.774Z,48.84
2019-02-23T03:35:10.962Z,48.86
2019-02-23T03:36:15.115Z,48.94
2019-02-23T03:37:19.207Z,48.99
2019-02-23T03:38:23.300Z,48.94
2019-02-23T03:39:27.415Z,49.03
2019-02-23T03:40:31.398Z,49.10
2019-02-23T03:41:35.642Z,49.11
2019-02-23T03:42:39.818Z,49.13
2019-02-23T03:43:44.223Z,49.13
2019-02-23T03:44:48.641Z,49.15
2019-02-23T03:45:52.476Z,49.20
2019-02-23T03:46:56.631Z,49.24
2019-02-23T03:48:01.356Z,49.17
2019-02-23T03:49:05.859Z,49.17
2019-02-23T03:50:09.852Z,49.15
2019-02-23T03:51:14.087Z,49.16
2019-02-23T03:52:18.324Z,49.17
2019-02-23T03:53:22.576Z,49.17
2019-02-23T03:54:26.807Z,49.17
2019-02-23T03:55:30.719Z,49.22
2019-02-23T03:56:35.204Z,49.29
2019-02-23T03:57:39.541Z,49.39
2019-02-23T03:58:43.736Z,49.40
2019-02-23T03:59:47.930Z,49.43
2019-02-23T04:00:51.920Z,49.46
2019-02-23T04:01:57.001Z,49.46
2019-02-23T04:03:00.924Z,49.50
2019-02-23T04:04:04.911Z,49.53
2019-02-23T04:05:09.758Z,49.52
2019-02-23T04:06:13.663Z,49.43
2019-02-23T04:07:18.189Z,49.41
2019-02-23T04:08:22.113Z,49.39
2019-02-23T04:09:26.393Z,49.34
2019-02-23T04:10:30.599Z,49.29
2019-02-23T04:11:34.515Z,49.27
2019-02-23T04:12:38.820Z,49.26
2019-02-23T04:13:43.316Z,49.24
2019-02-23T04:14:47.499Z,49.21
2019-02-23T04:15:51.415Z,49.20
2019-02-23T04:16:55.451Z,49.18
2019-02-23T04:18:00.056Z,49.18
2019-02-23T04:19:04.351Z,49.17
2019-02-23T04:20:08.372Z,49.16
2019-02-23T04:21:12.552Z,49.14
2019-02-23T04:22:16.662Z,49.11
2019-02-23T04:23:21.086Z,49.10
2019-02-23T04:24:25.282Z,49.17
2019-02-23T04:25:29.141Z,49.09
2019-02-23T04:26:32.990Z,49.17
2019-02-23T04:27:36.910Z,49.18
2019-02-23T04:28:41.607Z,49.17
2019-02-23T04:29:47.029Z,49.19
2019-02-23T04:30:51.023Z,49.15
2019-02-23T04:31:55.175Z,49.09
2019-02-23T04:32:59.861Z,48.95
2019-02-23T04:34:04.270Z,49.00
2019-02-23T04:35:08.532Z,49.01
2019-02-23T04:36:12.683Z,48.89
2019-02-23T04:37:16.777Z,48.84
2019-02-23T04:38:20.614Z,48.89
2019-02-23T04:39:24.951Z,48.78
2019-02-23T04:40:28.792Z,48.78
2019-02-23T04:41:33.587Z,48.77
2019-02-23T04:42:37.693Z,48.82
2019-02-23T04:43:44.239Z,48.89
2019-02-23T04:44:48.644Z,48.95
2019-02-23T04:45:52.563Z,48.99
2019-02-23T04:46:56.653Z,49.01
2019-02-23T04:48:00.492Z,49.07
2019-02-23T04:49:04.645Z,49.11
2019-02-23T04:50:09.022Z,49.17
2019-02-23T04:51:14.625Z,49.25
2019-02-23T04:52:18.416Z,49.28
2019-02-23T04:53:22.755Z,49.24
2019-02-23T04:54:26.850Z,49.23
2019-02-23T04:55:31.016Z,49.22
2019-02-23T04:56:34.928Z,49.16
2019-02-23T04:57:39.016Z,49.15
2019-02-23T04:58:43.372Z,49.06
2019-02-23T04:59:47.210Z,49.01
2019-02-23T05:00:51.129Z,49.06
2019-02-23T05:01:55.297Z,48.97
2019-02-23T05:02:59.759Z,48.99
2019-02-23T05:04:03.920Z,49.03
2019-02-23T05:05:08.740Z,49.15
2019-02-23T05:06:13.412Z,49.24
2019-02-23T05:07:17.575Z,49.12
2019-02-23T05:08:21.664Z,49.31
2019-02-23T05:09:25.601Z,49.36
2019-02-23T05:10:29.734Z,49.39
2019-02-23T05:11:33.589Z,49.46
2019-02-23T05:12:37.421Z,49.53
2019-02-23T05:13:41.765Z,49.59
2019-02-23T05:14:45.851Z,49.67
2019-02-23T05:15:50.491Z,49.81
2019-02-23T05:16:54.400Z,49.92
2019-02-23T05:17:58.804Z,49.98
2019-02-23T05:19:02.898Z,50.02
2019-02-23T05:20:06.940Z,50.02
2019-02-23T05:21:11.333Z,50.04
2019-02-23T05:22:15.603Z,50.02
2019-02-23T05:23:19.884Z,50.03
2019-02-23T05:24:24.052Z,50.01
2019-02-23T05:25:27.885Z,50.03
2019-02-23T05:26:32.006Z,49.98
2019-02-23T05:27:36.163Z,49.95
2019-02-23T05:28:40.427Z,50.01
2019-02-23T05:29:44.911Z,50.06
2019-02-23T05:30:48.976Z,50.11
2019-02-23T05:31:53.527Z,50.14
2019-02-23T05:32:57.901Z,50.17
2019-02-23T05:34:01.997Z,50.09
2019-02-23T05:35:06.446Z,50.04
2019-02-23T05:36:11.052Z,50.11
2019-02-23T05:37:15.234Z,50.18
2019-02-23T05:38:19.144Z,50.17
2019-02-23T05:39:23.431Z,50.25
2019-02-23T05:40:27.536Z,50.38
2019-02-23T05:41:32.081Z,50.24
2019-02-23T05:42:36.592Z,50.11
2019-02-23T05:43:40.798Z,50.08
2019-02-23T05:44:45.105Z,50.10
2019-02-23T05:45:49.015Z,50.03
2019-02-23T05:46:53.311Z,50.09
2019-02-23T05:47:57.493Z,50.13
2019-02-23T05:49:01.935Z,50.18
2019-02-23T05:50:06.248Z,50.19
2019-02-23T05:51:10.346Z,50.24
2019-02-23T05:52:14.460Z,50.32
2019-02-23T05:53:18.672Z,50.37
2019-02-23T05:54:23.117Z,50.47
2019-02-23T05:55:27.393Z,50.45
2019-02-23T05:56:31.985Z,50.48
2019-02-23T05:57:36.180Z,50.47
2019-02-23T05:58:40.241Z,50.58
2019-02-23T05:59:45.057Z,50.49
2019-02-23T06:00:49.883Z,50.50
2019-02-23T06:01:54.598Z,50.70
2019-02-23T06:02:58.957Z,50.92
2019-02-23T06:04:02.796Z,50.82
2019-02-23T06:05:07.370Z,50.74
2019-02-23T06:06:11.713Z,51.03
2019-02-23T06:07:16.634Z,51.22
2019-02-23T06:08:20.735Z,51.39
2019-02-23T06:09:25.083Z,51.52
2019-02-23T06:10:28.987Z,51.62
2019-02-23T06:11:33.332Z,51.65
2019-02-23T06:12:37.726Z,51.76
2019-02-23T06:13:41.817Z,51.83
2019-02-23T06:14:45.903Z,51.91
2019-02-23T06:15:49.740Z,51.95
2019-02-23T06:16:54.147Z,51.86
2019-02-23T06:17:58.745Z,51.87
2019-02-23T06:19:02.583Z,51.88
2019-02-23T06:20:06.824Z,51.92
2019-02-23T06:21:11.274Z,51.82
2019-02-23T06:22:15.113Z,51.87
2019-02-23T06:23:19.846Z,51.81
2019-02-23T06:24:24.009Z,51.81
2019-02-23T06:25:27.898Z,51.86
2019-02-23T06:26:32.325Z,51.85
2019-02-23T06:27:36.436Z,51.88
2019-02-23T06:28:40.692Z,51.91
2019-02-23T06:29:44.781Z,51.94
2019-02-23T06:30:49.027Z,51.90
2019-02-23T06:31:53.294Z,51.89
2019-02-23T06:32:57.572Z,51.87
2019-02-23T06:34:01.390Z,51.85
2019-02-23T06:35:06.152Z,51.88
2019-02-23T06:36:10.137Z,51.91
2019-02-23T06:37:14.356Z,51.94
2019-02-23T06:38:18.558Z,51.87
2019-02-23T06:39:23.181Z,51.87
2019-02-23T06:40:27.285Z,51.89
2019-02-23T06:41:32.035Z,51.83
2019-02-23T06:42:35.986Z,51.77
2019-02-23T06:43:39.931Z,51.68
2019-02-23T06:44:44.083Z,51.53
2019-02-23T06:45:48.316Z,51.57
2019-02-23T06:46:52.522Z,51.55
2019-02-23T06:47:56.606Z,51.57
2019-02-23T06:49:00.838Z,51.59
2019-02-23T06:50:05.155Z,51.57
2019-02-23T06:51:09.855Z,51.58
2019-02-23T06:52:14.473Z,51.63
2019-02-23T06:53:18.388Z,51.68
2019-02-23T06:54:22.598Z,51.77
2019-02-23T06:55:26.882Z,51.81
2019-02-23T06:56:31.105Z,51.84
2019-02-23T06:57:35.616Z,51.85
2019-02-23T06:58:40.154Z,51.82
2019-02-23T06:59:44.811Z,51.75
2019-02-23T07:00:48.896Z,51.74
2019-02-23T07:01:53.070Z,51.73
2019-02-23T07:02:56.975Z,51.71
2019-02-23T07:04:01.419Z,51.68
2019-02-23T07:05:05.897Z,51.61
2019-02-23T07:06:10.425Z,51.48
2019-02-23T07:07:14.588Z,51.43
2019-02-23T07:08:18.777Z,51.40
2019-02-23T07:09:22.860Z,51.36
2019-02-23T07:10:26.701Z,51.40
2019-02-23T07:11:30.541Z,51.39
2019-02-23T07:12:34.629Z,51.36
2019-02-23T07:13:41.802Z,51.30
2019-02-23T07:14:45.645Z,51.32
2019-02-23T07:15:49.473Z,51.28
2019-02-23T07:16:53.708Z,51.20
2019-02-23T07:17:57.615Z,51.15
2019-02-23T07:19:01.780Z,51.09
2019-02-23T07:20:06.117Z,51.03
2019-02-23T07:21:10.276Z,50.98
2019-02-23T07:22:15.781Z,50.91
2019-02-23T07:23:20.253Z,50.88
2019-02-23T07:24:24.088Z,50.84
2019-02-23T07:25:28.519Z,50.86
2019-02-23T07:26:32.683Z,50.74
2019-02-23T07:27:36.526Z,50.69
2019-02-23T07:28:40.611Z,50.72
2019-02-23T07:29:44.716Z,50.72
2019-02-23T07:30:49.123Z,50.74
2019-02-23T07:31:53.463Z,50.73
2019-02-23T07:32:58.128Z,50.50
2019-02-23T07:34:02.292Z,50.08
2019-02-23T07:35:06.611Z,49.93
2019-02-23T07:36:10.976Z,49.95
2019-02-23T07:37:15.103Z,49.96
2019-02-23T07:38:19.618Z,50.00
2019-02-23T07:39:23.973Z,50.02
2019-02-23T07:40:28.200Z,50.05
2019-02-23T07:41:32.335Z,50.08
2019-02-23T07:42:36.262Z,50.02
2019-02-23T07:43:40.445Z,49.92
2019-02-23T07:44:44.649Z,49.86
2019-02-23T07:45:48.836Z,49.80
2019-02-23T07:46:53.055Z,49.83
2019-02-23T07:47:57.538Z,49.92
2019-02-23T07:49:01.981Z,49.92
2019-02-23T07:50:07.373Z,49.91
2019-02-23T07:51:11.516Z,49.84
2019-02-23T07:52:25.709Z,49.91
2019-02-23T07:53:21.382Z,49.89
2019-02-23T07:54:25.610Z,49.56
2019-02-23T07:55:30.091Z,49.28
2019-02-23T07:56:35.173Z,49.42
2019-02-23T07:57:39.268Z,49.38
2019-02-23T07:58:43.823Z,49.44
2019-02-23T07:59:48.411Z,49.51
2019-02-23T08:00:52.404Z,49.55
2019-02-23T08:01:56.492Z,49.41
2019-02-23T08:03:00.719Z,49.22
2019-02-23T08:04:04.705Z,49.20
2019-02-23T08:05:09.147Z,49.16
2019-02-23T08:06:13.656Z,49.04
2019-02-23T08:07:17.636Z,49.12
2019-02-23T08:08:22.128Z,49.09
2019-02-23T08:09:26.565Z,49.06
2019-02-23T08:10:30.967Z,48.85
2019-02-23T08:11:35.646Z,48.84
2019-02-23T08:12:39.802Z,48.81
2019-02-23T08:13:43.898Z,48.43
2019-02-23T08:14:48.234Z,48.54
2019-02-23T08:15:52.583Z,48.70
2019-02-23T08:16:56.662Z,48.77
2019-02-23T08:18:00.577Z,48.37
2019-02-23T08:19:04.557Z,48.29
2019-02-23T08:20:08.777Z,48.46
2019-02-23T08:21:12.708Z,48.56
2019-02-23T08:22:16.784Z,48.71
2019-02-23T08:23:21.522Z,48.67
2019-02-23T08:24:25.427Z,48.78
2019-02-23T08:25:29.754Z,48.76
2019-02-23T08:26:33.681Z,48.71
2019-02-23T08:27:38.091Z,48.75
2019-02-23T08:28:42.705Z,48.65
2019-02-23T08:29:46.863Z,48.21
2019-02-23T08:30:50.870Z,48.19
2019-02-23T08:31:55.103Z,47.98
2019-02-23T08:32:59.193Z,48.15
2019-02-23T08:34:03.539Z,48.29
2019-02-23T08:35:07.862Z,48.44
2019-02-23T08:36:12.295Z,48.46
2019-02-23T08:37:16.791Z,48.47
2019-02-23T08:38:20.634Z,48.28
2019-02-23T08:39:24.800Z,48.13
2019-02-23T08:40:29.218Z,48.02
2019-02-23T08:41:33.649Z,47.79
2019-02-23T08:42:37.903Z,47.60
2019-02-23T08:43:41.800Z,47.53
2019-02-23T08:44:45.899Z,47.31
2019-02-23T08:45:49.732Z,47.21
2019-02-23T08:46:54.160Z,47.12
2019-02-23T08:47:58.514Z,47.04
2019-02-23T08:49:02.786Z,46.94
2019-02-23T08:50:08.838Z,46.88
2019-02-23T08:51:13.309Z,46.76
2019-02-23T08:52:18.366Z,46.55
2019-02-23T08:53:22.616Z,46.49
2019-02-23T08:54:27.437Z,46.41
2019-02-23T08:55:31.957Z,46.38
2019-02-23T08:56:36.363Z,46.12
2019-02-23T08:57:40.568Z,46.13
2019-02-23T08:58:45.385Z,46.09
2019-02-23T08:59:49.716Z,46.00
2019-02-23T09:00:54.413Z,45.99
2019-02-23T09:01:58.820Z,45.87
2019-02-23T09:03:03.133Z,45.84
2019-02-23T09:04:07.103Z,45.95
2019-02-23T09:05:12.083Z,45.89
2019-02-23T09:06:16.601Z,45.71
2019-02-23T09:07:21.402Z,45.63
2019-02-23T09:08:25.649Z,45.49
2019-02-23T09:09:30.108Z,45.60
2019-02-23T09:10:34.286Z,45.59
2019-02-23T09:11:38.822Z,45.63
2019-02-23T09:12:43.130Z,45.60
2019-02-23T09:13:47.237Z,45.49
2019-02-23T09:14:51.620Z,45.48
2019-02-23T09:15:55.976Z,45.52
2019-02-23T09:17:00.166Z,45.48
2019-02-23T09:18:04.334Z,45.50
2019-02-23T09:19:08.414Z,45.45
2019-02-23T09:20:12.894Z,45.29
2019-02-23T09:21:16.981Z,44.93
2019-02-23T09:22:21.702Z,44.71
2019-02-23T09:23:26.008Z,44.77
2019-02-23T09:24:30.189Z,44.73
2019-02-23T09:25:34.025Z,44.76
2019-02-23T09:26:38.935Z,44.76
2019-02-23T09:27:43.358Z,44.76
2019-02-23T09:28:47.784Z,44.76
2019-02-23T09:29:52.271Z,44.76
2019-02-23T09:30:57.191Z,44.61
2019-02-23T09:32:01.423Z,44.47
2019-02-23T09:33:05.718Z,44.47
2019-02-23T09:34:10.216Z,44.52
2019-02-23T09:35:14.450Z,44.48
2019-02-23T09:36:18.356Z,44.43
2019-02-23T09:37:22.649Z,44.44
2019-02-23T09:38:26.497Z,44.40
2019-02-23T09:39:30.733Z,44.26
2019-02-23T09:40:35.288Z,44.08
2019-02-23T09:41:39.756Z,44.11
2019-02-23T09:42:43.928Z,44.07
2019-02-23T09:43:47.879Z,43.92
2019-02-23T09:44:52.119Z,43.76
2019-02-23T09:45:56.393Z,43.72
2019-02-23T09:47:01.097Z,43.69
2019-02-23T09:48:05.707Z,43.74
2019-02-23T09:49:10.384Z,43.73
2019-02-23T09:50:15.152Z,43.65
2019-02-23T09:51:19.234Z,43.65
2019-02-23T09:52:23.644Z,43.51
2019-02-23T09:53:27.986Z,43.48
2019-02-23T09:54:32.397Z,43.48
2019-02-23T09:55:36.774Z,43.48
2019-02-23T09:56:41.110Z,43.46
2019-02-23T09:57:45.539Z,43.48
2019-02-23T09:58:49.439Z,43.38
2019-02-23T09:59:53.532Z,43.24
2019-02-23T10:00:57.685Z,43.03
2019-02-23T10:02:02.417Z,42.57
2019-02-23T10:03:06.402Z,42.46
2019-02-23T10:04:10.823Z,42.26
2019-02-23T10:05:15.089Z,42.54
2019-02-23T10:06:18.929Z,43.02
2019-02-23T10:07:23.159Z,42.82
2019-02-23T10:08:27.334Z,42.61
2019-02-23T10:09:31.949Z,42.49
2019-02-23T10:10:36.856Z,42.37
2019-02-23T10:11:40.691Z,42.46
2019-02-23T10:12:44.784Z,42.56
2019-02-23T10:13:48.887Z,42.41
2019-02-23T10:14:53.321Z,42.07
2019-02-23T10:15:57.474Z,41.55
2019-02-23T10:17:01.384Z,41.24
2019-02-23T10:18:05.377Z,41.16
2019-02-23T10:19:09.650Z,41.04
2019-02-23T10:20:14.234Z,41.19
2019-02-23T10:21:18.264Z,41.19
2019-02-23T10:22:22.675Z,41.08
2019-02-23T10:23:26.856Z,41.16
2019-02-23T10:24:31.215Z,41.12
2019-02-23T10:25:35.670Z,40.95
2019-02-23T10:26:39.838Z,40.81
2019-02-23T10:27:44.396Z,40.86
2019-02-23T10:28:48.314Z,40.75
2019-02-23T10:29:52.415Z,40.67
2019-02-23T10:30:56.577Z,40.56
2019-02-23T10:32:00.701Z,40.61
2019-02-23T10:33:04.810Z,40.71
2019-02-23T10:34:09.096Z,41.00
2019-02-23T10:35:13.409Z,41.10
2019-02-23T10:36:17.606Z,41.57
2019-02-23T10:37:21.731Z,41.35
2019-02-23T10:38:26.286Z,40.83
2019-02-23T10:39:30.144Z,40.42
2019-02-23T10:40:34.655Z,40.04
2019-02-23T10:41:38.640Z,39.93
2019-02-23T10:42:43.477Z,39.89
2019-02-23T10:43:47.313Z,39.91
2019-02-23T10:44:51.496Z,39.91
2019-02-23T10:45:55.792Z,39.93
2019-02-23T10:47:00.245Z,39.80
2019-02-23T10:48:04.156Z,39.85
2019-02-23T10:49:08.607Z,39.65
2019-02-23T10:50:12.730Z,39.51
2019-02-23T10:51:16.717Z,39.39
2019-02-23T10:52:21.225Z,39.27
2019-02-23T10:53:32.648Z,39.23
2019-02-23T10:54:31.423Z,39.23
2019-02-23T10:55:35.345Z,39.07
2019-02-23T10:56:39.791Z,39.00
2019-02-23T10:57:43.625Z,38.98
2019-02-23T10:58:47.494Z,38.85
2019-02-23T10:59:51.692Z,38.80
2019-02-23T11:00:55.844Z,38.80
2019-02-23T11:02:00.527Z,38.91
2019-02-23T11:03:04.454Z,38.66
2019-02-23T11:04:09.129Z,38.54
2019-02-23T11:05:13.809Z,38.55
2019-02-23T11:06:18.211Z,38.47
2019-02-23T11:07:22.116Z,38.31
2019-02-23T11:08:26.018Z,38.10
2019-02-23T11:09:34.614Z,38.10
2019-02-23T11:10:39.040Z,38.01
2019-02-23T11:11:43.762Z,37.84
2019-02-23T11:12:47.925Z,37.88
2019-02-23T11:13:51.908Z,37.94
2019-02-23T11:14:55.892Z,37.78
2019-02-23T11:16:00.059Z,36.82
2019-02-23T11:17:04.048Z,37.06
2019-02-23T11:18:08.212Z,37.09
2019-02-23T11:19:12.616Z,37.17
2019-02-23T11:20:17.374Z,37.42
2019-02-23T11:21:21.855Z,37.12
2019-02-23T11:22:26.183Z,36.51
2019-02-23T11:23:30.670Z,36.69
2019-02-23T11:24:34.909Z,36.46
2019-02-23T11:25:38.899Z,36.67
2019-02-23T11:26:42.808Z,36.74
2019-02-23T11:27:47.266Z,36.51
2019-02-23T11:28:51.520Z,36.43
2019-02-23T11:29:55.754Z,36.36
2019-02-23T11:31:00.229Z,36.24
2019-02-23T11:32:04.219Z,36.36
2019-02-23T11:33:08.145Z,36.10
2019-02-23T11:34:12.546Z,35.84
2019-02-23T11:35:17.560Z,35.89
2019-02-23T11:36:22.055Z,35.77
2019-02-23T11:37:26.311Z,35.43
2019-02-23T11:38:30.300Z,34.90
2019-02-23T11:39:35.137Z,34.26
2019-02-23T11:40:39.050Z,34.00
2019-02-23T11:41:43.597Z,33.78
2019-02-23T11:42:47.523Z,33.52
2019-02-23T11:43:51.704Z,33.54
2019-02-23T11:44:56.320Z,33.43
2019-02-23T11:46:00.201Z,33.59
2019-02-23T11:47:04.525Z,33.74
2019-02-23T11:48:08.522Z,33.75
2019-02-23T11:49:12.805Z,33.61
2019-02-23T11:50:17.098Z,33.55
2019-02-23T11:51:20.964Z,33.55
2019-02-23T11:52:25.200Z,33.63
2019-02-23T11:53:29.451Z,33.58
2019-02-23T11:54:33.365Z,33.34
2019-02-23T11:55:37.655Z,32.93
2019-02-23T11:56:41.590Z,32.44
2019-02-23T11:57:45.869Z,32.52
2019-02-23T11:58:50.101Z,32.64
2019-02-23T11:59:54.379Z,32.57
2019-02-23T12:00:58.895Z,32.11
2019-02-23T12:02:03.011Z,32.05
2019-02-23T12:03:07.336Z,32.15
2019-02-23T12:04:11.928Z,32.18
2019-02-23T12:05:16.601Z,32.33
2019-02-23T12:06:20.531Z,32.16
2019-02-23T12:07:24.460Z,31.83
2019-02-23T12:08:28.650Z,31.86
2019-02-23T12:09:33.150Z,32.03
2019-02-23T12:10:37.309Z,32.11
2019-02-23T12:11:41.494Z,32.14
2019-02-23T12:12:45.404Z,32.22
2019-02-23T12:13:49.386Z,32.12
2019-02-23T12:14:53.667Z,31.94
2019-02-23T12:15:57.582Z,31.66
2019-02-23T12:17:01.766Z,31.47
2019-02-23T12:18:05.927Z,31.23
2019-02-23T12:19:10.011Z,31.26
2019-02-23T12:20:14.253Z,31.07
2019-02-23T12:21:18.589Z,31.13
2019-02-23T12:22:22.698Z,31.10
2019-02-23T12:23:27.216Z,30.84
2019-02-23T12:24:31.064Z,31.19
2019-02-23T12:25:34.967Z,31.39
2019-02-23T12:26:38.814Z,31.66
2019-02-23T12:27:43.065Z,31.50
2019-02-23T12:28:47.681Z,31.25
2019-02-23T12:29:51.516Z,31.11
2019-02-23T12:30:55.429Z,31.06
2019-02-23T12:31:59.336Z,30.86
2019-02-23T12:33:03.183Z,30.55
2019-02-23T12:34:07.272Z,30.45
2019-02-23T12:35:11.774Z,30.23
2019-02-23T12:36:15.934Z,29.85
2019-02-23T12:37:20.023Z,29.50
2019-02-23T12:38:23.930Z,29.38
2019-02-23T12:39:28.270Z,29.35
2019-02-23T12:40:32.107Z,29.35
2019-02-23T12:41:36.196Z,29.33
2019-02-23T12:42:40.205Z,29.30
2019-02-23T12:43:44.048Z,29.41
2019-02-23T12:44:48.472Z,29.52
2019-02-23T12:45:52.382Z,29.59
2019-02-23T12:46:56.765Z,29.25
2019-02-23T12:48:01.488Z,28.93
2019-02-23T12:49:05.656Z,28.61
2019-02-23T12:50:10.415Z,28.39
2019-02-23T12:51:14.334Z,28.26
2019-02-23T12:52:18.316Z,28.27
2019-02-23T12:53:22.404Z,28.44
2019-02-23T12:54:26.321Z,28.65
2019-02-23T12:55:30.664Z,28.81
2019-02-23T12:56:34.924Z,28.83
2019-02-23T12:57:39.745Z,28.66
2019-02-23T12:58:44.182Z,28.61
2019-02-23T12:59:48.493Z,28.65
2019-02-23T13:00:52.784Z,28.60
2019-02-23T13:01:56.704Z,28.69
2019-02-23T13:03:01.284Z,28.77
2019-02-23T13:04:05.903Z,28.80
2019-02-23T13:05:10.785Z,28.64
2019-02-23T13:06:15.483Z,28.55
2019-02-23T13:07:19.744Z,28.50
2019-02-23T13:08:25.930Z,28.44
2019-02-23T13:09:33.347Z,28.50
2019-02-23T13:10:37.465Z,28.55
2019-02-23T13:11:42.129Z,28.54
2019-02-23T13:13:17.688Z,28.45
2019-02-23T13:15:04.580Z,28.45
2019-02-23T13:16:30.187Z,28.72
2019-02-23T13:18:17.067Z,29.07
2019-02-23T13:20:07.290Z,29.28
2019-02-23T13:21:26.825Z,29.18
2019-02-23T13:23:17.835Z,29.23
2019-02-23T13:25:03.004Z,29.07
2019-02-23T13:26:45.625Z,29.11
2019-02-23T13:28:39.197Z,29.10
2019-02-23T13:30:20.344Z,28.97
2019-02-23T13:31:51.050Z,28.97
2019-02-23T13:33:30.379Z,28.58
2019-02-23T13:34:59.882Z,28.47
2019-02-23T13:36:36.816Z,28.15
2019-02-23T13:37:54.506Z,28.30
2019-02-23T13:39:25.447Z,28.08
2019-02-23T13:41:02.636Z,28.13
2019-02-23T13:42:18.606Z,28.21
2019-02-23T13:44:15.619Z,28.35
2019-02-23T13:45:36.392Z,28.43
2019-02-23T13:47:31.132Z,28.62
2019-02-23T13:49:14.802Z,28.65
2019-02-23T13:51:09.679Z,29.01
2019-02-23T13:52:32.184Z,29.25
2019-02-23T13:54:00.185Z,28.79
2019-02-23T13:56:03.474Z,28.51
2019-02-23T13:57:42.756Z,28.57
2019-02-23T13:59:34.486Z,28.83
2019-02-23T14:01:11.909Z,28.74
2019-02-23T14:02:55.520Z,28.93
2019-02-23T14:04:29.393Z,28.78
2019-02-23T14:06:02.376Z,28.81
2019-02-23T14:07:49.495Z,28.80